createdAt,value
2019-03-23T00:01:01.918Z,7.60
2019-03-23T00:03:46.579Z,7.40
2019-03-23T00:06:31.488Z,7.30
2019-03-23T00:09:15.841Z,7.30
2019-03-23T00:12:00.925Z,7.30
2019-03-23T00:14:46.161Z,7.10
2019-03-23T00:17:31.760Z,7.30
2019-03-23T00:20:16.409Z,7.60
2019-03-23T00:23:01.464Z,7.70
2019-03-23T00:25:45.796Z,7.70
2019-03-23T00:28:39.543Z,7.80
2019-03-23T00:31:24.553Z,7.80
2019-03-23T00:34:18.259Z,7.80
2019-03-23T00:37:03.773Z,8.00
2019-03-23T00:39:57.544Z,8.10
2019-03-23T00:42:42.142Z,8.10
2019-03-23T00:45:26.924Z,7.90
2019-03-23T00:48:11.701Z,7.60
2019-03-23T00:50:57.065Z,7.30
2019-03-23T00:53:50.749Z,7.20
2019-03-23T00:56:35.768Z,7.20
2019-03-23T00:59:29.713Z,7.00
2019-03-23T01:02:14.700Z,7.00
2019-03-23T01:05:08.808Z,6.90
2019-03-23T01:08:02.321Z,6.80
2019-03-23T01:10:47.585Z,6.70
2019-03-23T01:13:32.434Z,6.60
2019-03-23T01:16:17.368Z,6.60
2019-03-23T01:19:11.524Z,6.60
2019-03-23T01:22:05.633Z,6.50
2019-03-23T01:24:51.536Z,6.50
2019-03-23T01:27:45.875Z,6.60
2019-03-23T01:30:30.280Z,6.60
2019-03-23T01:33:15.489Z,6.60
2019-03-23T01:36:00.138Z,6.60
2019-03-23T01:38:44.774Z,6.70
2019-03-23T01:41:29.437Z,6.70
2019-03-23T01:44:14.468Z,6.80
2019-03-23T01:46:59.600Z,6.70
2019-03-23T01:49:44.752Z,6.70
2019-03-23T01:52:38.276Z,6.70
2019-03-23T01:55:23.848Z,6.80
2019-03-23T01:58:17.180Z,6.90
2019-03-23T02:01:02.136Z,7.00
2019-03-23T02:03:47.279Z,7.20
2019-03-23T02:06:46.820Z,7.20
2019-03-23T02:09:31.488Z,7.00
2019-03-23T02:12:16.151Z,6.90
2019-03-23T02:15:01.084Z,6.90
2019-03-23T02:17:45.647Z,6.90
2019-03-23T02:20:30.528Z,6.90
2019-03-23T02:23:15.512Z,6.80
2019-03-23T02:26:00.275Z,6.60
2019-03-23T02:28:45.256Z,6.50
2019-03-23T02:31:30.012Z,6.70
2019-03-23T02:34:14.506Z,6.80
2019-03-23T02:36:58.876Z,6.90
2019-03-23T02:39:52.233Z,6.70
2019-03-23T02:42:36.887Z,6.70
2019-03-23T02:45:22.039Z,6.60
2019-03-23T02:48:06.434Z,6.50
2019-03-23T02:50:50.944Z,6.50
2019-03-23T02:53:35.592Z,6.40
2019-03-23T02:56:28.781Z,6.20
2019-03-23T02:59:13.584Z,6.10
2019-03-23T03:01:58.139Z,6.00
2019-03-23T03:04:43.248Z,5.80
2019-03-23T03:07:40.635Z,5.80
2019-03-23T03:10:14.217Z,5.80
2019-03-23T03:12:59.034Z,5.80
2019-03-23T03:15:44.049Z,5.70
2019-03-23T03:18:28.545Z,5.60
2019-03-23T03:21:13.314Z,5.60
2019-03-23T03:23:57.972Z,5.40
2019-03-23T03:26:42.360Z,5.30
2019-03-23T03:29:35.464Z,5.30
2019-03-23T03:32:20.342Z,5.20
2019-03-23T03:35:04.550Z,5.30
2019-03-23T03:37:57.680Z,5.30
2019-03-23T03:40:42.441Z,5.30
2019-03-23T03:43:27.181Z,5.10
2019-03-23T03:46:21.686Z,5.00
2019-03-23T03:49:12.429Z,5.00
2019-03-23T03:51:52.996Z,4.80
2019-03-23T03:54:37.576Z,4.90
2019-03-23T03:57:22.315Z,5.00
2019-03-23T04:00:06.722Z,4.90
2019-03-23T04:02:51.426Z,5.10
2019-03-23T04:05:36.264Z,5.40
2019-03-23T04:08:20.756Z,5.40
2019-03-23T04:11:06.672Z,5.40
2019-03-23T04:13:51.388Z,5.40
2019-03-23T04:16:35.981Z,5.40
2019-03-23T04:19:21.219Z,5.30
2019-03-23T04:22:14.888Z,5.30
2019-03-23T04:24:59.553Z,5.30
2019-03-23T04:27:44.325Z,5.20
2019-03-23T04:30:28.629Z,5.30
2019-03-23T04:33:13.448Z,5.50
2019-03-23T04:35:57.573Z,5.60
2019-03-23T04:38:43.136Z,5.60
2019-03-23T04:41:27.512Z,5.60
2019-03-23T04:44:21.167Z,5.60
2019-03-23T04:47:06.053Z,5.50
2019-03-23T04:49:50.755Z,5.40
2019-03-23T04:52:36.163Z,5.20
2019-03-23T04:55:29.739Z,5.20
2019-03-23T04:58:14.536Z,5.20
2019-03-23T05:00:59.289Z,5.20
2019-03-23T05:03:43.684Z,5.30
2019-03-23T05:06:28.351Z,5.20
2019-03-23T05:09:12.707Z,5.20
2019-03-23T05:11:58.203Z,5.20
2019-03-23T05:14:42.803Z,5.20
2019-03-23T05:17:27.567Z,5.10
2019-03-23T05:20:12.224Z,5.10
2019-03-23T05:22:56.700Z,5.10
2019-03-23T05:25:50.383Z,5.10
2019-03-23T05:28:34.895Z,5.10
2019-03-23T05:31:19.827Z,5.10
2019-03-23T05:34:04.324Z,4.90
2019-03-23T05:36:48.526Z,4.80
2019-03-23T05:39:41.808Z,4.90
2019-03-23T05:42:26.751Z,5.00
2019-03-23T05:45:11.702Z,5.10
2019-03-23T05:47:56.245Z,5.10
2019-03-23T05:50:42.092Z,5.00
2019-03-23T05:53:26.833Z,5.00
2019-03-23T05:56:11.618Z,5.00
2019-03-23T05:58:56.295Z,5.00
2019-03-23T06:01:49.740Z,5.00
2019-03-23T06:04:34.472Z,5.00
2019-03-23T06:07:19.247Z,5.10
2019-03-23T06:10:03.561Z,5.30
2019-03-23T06:12:48.040Z,5.40
2019-03-23T06:15:41.303Z,5.30
2019-03-23T06:18:26.132Z,5.30
2019-03-23T06:21:10.793Z,5.40
2019-03-23T06:23:55.409Z,5.40
2019-03-23T06:26:40.099Z,5.60
2019-03-23T06:29:25.192Z,5.70
2019-03-23T06:32:09.924Z,5.80
2019-03-23T06:34:54.427Z,5.90
2019-03-23T06:37:38.772Z,6.00
2019-03-23T06:40:32.247Z,6.20
2019-03-23T06:43:16.736Z,6.30
2019-03-23T06:46:01.339Z,6.40
2019-03-23T06:48:46.536Z,6.50
2019-03-23T06:51:31.548Z,6.60
2019-03-23T06:54:16.102Z,6.70
2019-03-23T06:57:00.709Z,6.80
2019-03-23T07:00:03.171Z,7.00
2019-03-23T07:02:47.833Z,7.10
2019-03-23T07:05:32.672Z,7.30
2019-03-23T07:08:17.269Z,7.40
2019-03-23T07:11:02.600Z,7.70
2019-03-23T07:13:47.781Z,7.80
2019-03-23T07:16:41.259Z,8.10
2019-03-23T07:19:26.136Z,8.30
2019-03-23T07:22:10.375Z,8.40
2019-03-23T07:24:54.909Z,8.60
2019-03-23T07:27:40.494Z,8.70
2019-03-23T07:30:25.608Z,8.90
2019-03-23T07:33:09.984Z,9.10
2019-03-23T07:35:54.679Z,9.20
2019-03-23T07:38:38.867Z,9.40
2019-03-23T07:41:32.589Z,9.60
2019-03-23T07:44:26.620Z,9.70
2019-03-23T07:47:11.686Z,9.80
2019-03-23T07:50:05.137Z,9.90
2019-03-23T07:52:50.140Z,10.10
2019-03-23T07:55:35.111Z,10.30
2019-03-23T07:58:19.920Z,10.40
2019-03-23T08:01:04.347Z,10.60
2019-03-23T08:03:49.004Z,10.70
2019-03-23T08:06:33.816Z,10.90
2019-03-23T08:09:20.687Z,11.00
2019-03-23T08:12:04.356Z,11.10
2019-03-23T08:14:57.895Z,11.20
2019-03-23T08:17:42.672Z,11.30
2019-03-23T08:20:27.252Z,11.50
2019-03-23T08:23:12.128Z,11.70
2019-03-23T08:25:57.154Z,11.80
2019-03-23T08:28:41.800Z,12.00
2019-03-23T08:31:26.790Z,12.10
2019-03-23T08:34:11.111Z,12.20
2019-03-23T08:36:56.015Z,12.30
2019-03-23T08:39:48.407Z,12.40
2019-03-23T08:42:26.782Z,12.60
2019-03-23T08:45:11.215Z,12.80
2019-03-23T08:48:04.764Z,12.90
2019-03-23T08:50:49.332Z,13.10
2019-03-23T08:53:33.947Z,13.30
2019-03-23T08:56:18.400Z,13.50
2019-03-23T08:59:11.463Z,13.70
2019-03-23T09:01:56.285Z,13.90
2019-03-23T09:04:40.760Z,14.10
2019-03-23T09:07:25.365Z,14.30
2019-03-23T09:10:10.048Z,14.50
2019-03-23T09:13:03.470Z,14.70
2019-03-23T09:15:48.120Z,15.00
2019-03-23T09:18:32.567Z,15.20
2019-03-23T09:21:17.520Z,15.40
2019-03-23T09:24:01.611Z,15.60
2019-03-23T09:26:55.051Z,15.80
2019-03-23T09:29:39.992Z,16.00
2019-03-23T09:32:24.140Z,16.20
2019-03-23T09:35:08.438Z,16.40
2019-03-23T09:38:02.428Z,16.60
2019-03-23T09:40:55.816Z,16.80
2019-03-23T09:43:40.804Z,17.10
2019-03-23T09:46:25.584Z,17.30
2019-03-23T09:49:10.052Z,17.50
2019-03-23T09:51:54.791Z,17.80
2019-03-23T09:54:39.183Z,18.00
2019-03-23T09:57:32.244Z,18.20
2019-03-23T10:00:16.651Z,18.50
2019-03-23T10:03:09.767Z,18.60
2019-03-23T10:05:54.484Z,18.80
2019-03-23T10:08:39.239Z,19.10
2019-03-23T10:11:23.905Z,19.30
2019-03-23T10:14:08.419Z,19.30
2019-03-23T10:17:04.139Z,19.50
2019-03-23T10:19:57.463Z,19.70
2019-03-23T10:22:41.809Z,20.00
2019-03-23T10:25:26.300Z,20.20
2019-03-23T10:28:19.873Z,20.60
2019-03-23T10:31:04.467Z,20.90
2019-03-23T10:33:48.612Z,21.00
2019-03-23T10:36:33.376Z,21.20
2019-03-23T10:39:18.100Z,21.40
2019-03-23T10:42:02.635Z,21.60
2019-03-23T10:44:56.399Z,21.80
2019-03-23T10:47:41.062Z,22.10
2019-03-23T10:50:26.008Z,22.30
2019-03-23T10:53:10.888Z,22.50
2019-03-23T10:56:04.630Z,22.80
2019-03-23T10:58:49.191Z,23.10
2019-03-23T11:01:34.023Z,23.30
2019-03-23T11:04:18.411Z,23.50
2019-03-23T11:07:03.272Z,23.60
2019-03-23T11:09:47.771Z,23.90
2019-03-23T11:12:41.581Z,24.00
2019-03-23T11:15:35.656Z,24.00
2019-03-23T11:18:29.387Z,24.10
2019-03-23T11:21:13.927Z,24.20
2019-03-23T11:23:58.437Z,24.30
2019-03-23T11:26:42.996Z,24.40
2019-03-23T11:29:36.384Z,24.60
2019-03-23T11:32:20.963Z,24.90
2019-03-23T11:35:07.957Z,25.10
2019-03-23T11:38:02.420Z,25.30
2019-03-23T11:40:57.352Z,25.50
2019-03-23T11:43:41.983Z,25.50
2019-03-23T11:46:26.508Z,25.60
2019-03-23T11:49:11.208Z,25.70
2019-03-23T11:51:55.401Z,25.80
2019-03-23T11:54:49.284Z,25.90
2019-03-23T11:57:33.729Z,26.10
2019-03-23T12:00:18.251Z,26.20
2019-03-23T12:03:02.900Z,26.10
2019-03-23T12:05:47.824Z,26.00
2019-03-23T12:08:32.452Z,26.20
2019-03-23T12:11:16.857Z,26.40
2019-03-23T12:14:10.384Z,26.40
2019-03-23T12:16:55.073Z,26.70
2019-03-23T12:19:39.717Z,26.80
2019-03-23T12:22:24.236Z,26.90
2019-03-23T12:25:08.584Z,26.70
2019-03-23T12:28:02.097Z,26.90
2019-03-23T12:30:46.852Z,26.90
2019-03-23T12:33:31.275Z,26.80
2019-03-23T12:36:15.692Z,27.00
2019-03-23T12:39:08.988Z,27.20
2019-03-23T12:41:53.609Z,27.50
2019-03-23T12:44:37.852Z,27.50
2019-03-23T12:47:23.487Z,27.30
2019-03-23T12:50:08.262Z,27.30
2019-03-23T12:52:53.004Z,27.50
2019-03-23T12:55:37.612Z,27.70
2019-03-23T12:58:22.931Z,27.80
2019-03-23T13:01:07.322Z,27.80
2019-03-23T13:03:52.279Z,27.60
2019-03-23T13:06:37.068Z,27.70
2019-03-23T13:09:22.013Z,28.00
2019-03-23T13:12:06.559Z,28.40
2019-03-23T13:14:51.336Z,28.30
2019-03-23T13:17:36.188Z,28.30
2019-03-23T13:20:21.015Z,28.40
2019-03-23T13:23:05.503Z,28.40
2019-03-23T13:25:50.365Z,28.40
2019-03-23T13:28:34.544Z,28.30
2019-03-23T13:31:27.768Z,28.40
2019-03-23T13:34:12.560Z,28.50
2019-03-23T13:36:57.283Z,28.60
2019-03-23T13:39:41.357Z,28.80
2019-03-23T13:42:35.150Z,28.70
2019-03-23T13:45:19.645Z,28.70
2019-03-23T13:48:04.184Z,28.80
2019-03-23T13:50:48.820Z,29.00
2019-03-23T13:53:43.520Z,28.90
2019-03-23T13:56:28.262Z,28.70
2019-03-23T13:59:12.714Z,28.60
2019-03-23T14:01:57.220Z,28.70
2019-03-23T14:04:42.017Z,29.10
2019-03-23T14:07:26.568Z,29.10
2019-03-23T14:10:20.004Z,29.10
2019-03-23T14:13:04.560Z,29.00
2019-03-23T14:15:49.120Z,28.80
2019-03-23T14:18:35.735Z,28.90
2019-03-23T14:21:20.020Z,28.90
2019-03-23T14:24:13.664Z,29.00
2019-03-23T14:26:58.777Z,29.00
2019-03-23T14:29:52.165Z,29.10
2019-03-23T14:32:36.997Z,28.90
2019-03-23T14:35:21.975Z,29.00
2019-03-23T14:38:06.848Z,29.20
2019-03-23T14:40:51.757Z,29.40
2019-03-23T14:43:36.265Z,29.20
2019-03-23T14:46:20.975Z,29.10
2019-03-23T14:49:06.011Z,28.90
2019-03-23T14:51:50.353Z,28.50
2019-03-23T14:54:34.940Z,28.30
2019-03-23T14:57:19.488Z,28.30
2019-03-23T15:00:12.712Z,28.50
2019-03-23T15:02:57.560Z,28.50
2019-03-23T15:05:42.343Z,28.70
2019-03-23T15:08:27.360Z,28.60
2019-03-23T15:11:11.963Z,28.70
2019-03-23T15:13:56.601Z,28.80
2019-03-23T15:16:41.440Z,28.70
2019-03-23T15:19:26.387Z,28.40
2019-03-23T15:22:11.252Z,28.20
2019-03-23T15:24:55.659Z,27.80
2019-03-23T15:27:40.580Z,27.40
2019-03-23T15:30:25.128Z,26.80
2019-03-23T15:33:09.767Z,26.50
2019-03-23T15:35:54.499Z,26.20
2019-03-23T15:38:47.914Z,25.70
2019-03-23T15:41:32.739Z,25.10
2019-03-23T15:44:17.392Z,24.70
2019-03-23T15:47:02.184Z,24.50
2019-03-23T15:49:46.226Z,24.10
2019-03-23T15:52:39.452Z,23.90
2019-03-23T15:55:24.269Z,23.80
2019-03-23T15:58:08.627Z,23.60
2019-03-23T16:00:53.324Z,23.40
2019-03-23T16:03:38.306Z,22.90
2019-03-23T16:06:22.453Z,22.60
2019-03-23T16:09:15.981Z,22.50
2019-03-23T16:12:00.604Z,22.40
2019-03-23T16:14:45.300Z,22.30
2019-03-23T16:17:29.949Z,22.10
2019-03-23T16:20:14.493Z,22.00
2019-03-23T16:23:07.933Z,21.90
2019-03-23T16:25:53.468Z,21.80
2019-03-23T16:28:46.817Z,21.50
2019-03-23T16:31:31.796Z,21.40
2019-03-23T16:34:16.500Z,21.20
2019-03-23T16:37:00.651Z,21.00
2019-03-23T16:39:45.151Z,21.00
2019-03-23T16:42:45.317Z,21.00
2019-03-23T16:45:24.916Z,21.10
2019-03-23T16:48:09.219Z,21.00
2019-03-23T16:50:53.840Z,20.90
2019-03-23T16:53:38.479Z,20.70
2019-03-23T16:56:32.280Z,20.60
2019-03-23T16:59:25.935Z,20.50
2019-03-23T17:02:10.812Z,20.20
2019-03-23T17:04:55.391Z,20.10
2019-03-23T17:07:40.029Z,20.10
2019-03-23T17:10:24.671Z,20.00
2019-03-23T17:13:09.568Z,19.80
2019-03-23T17:15:54.412Z,19.80
2019-03-23T17:18:38.795Z,19.70
2019-03-23T17:21:32.061Z,19.50
2019-03-23T17:24:16.696Z,19.40
2019-03-23T17:27:01.865Z,19.30
2019-03-23T17:29:46.573Z,19.40
2019-03-23T17:32:30.884Z,19.30
2019-03-23T17:35:15.852Z,19.30
2019-03-23T17:38:00.888Z,19.10
2019-03-23T17:40:46.308Z,19.00
2019-03-23T17:43:40.935Z,18.90
2019-03-23T17:46:27.728Z,18.80
2019-03-23T17:49:11.919Z,18.70
2019-03-23T17:52:05.560Z,18.60
2019-03-23T17:55:00.752Z,18.50
2019-03-23T17:57:46.444Z,18.40
2019-03-23T18:00:39.856Z,18.20
2019-03-23T18:03:24.221Z,17.90
2019-03-23T18:06:08.648Z,17.60
2019-03-23T18:09:01.895Z,17.20
2019-03-23T18:11:48.192Z,16.90
2019-03-23T18:14:32.716Z,16.50
2019-03-23T18:17:17.550Z,16.00
2019-03-23T18:20:02.011Z,15.80
2019-03-23T18:22:46.561Z,15.50
2019-03-23T18:25:40.068Z,15.30
2019-03-23T18:28:24.791Z,15.10
2019-03-23T18:31:09.304Z,15.00
2019-03-23T18:33:53.992Z,14.80
2019-03-23T18:36:38.549Z,14.60
2019-03-23T18:39:23.416Z,14.60
2019-03-23T18:42:08.397Z,14.70
2019-03-23T18:44:53.092Z,14.90
2019-03-23T18:47:37.829Z,15.00
2019-03-23T18:50:22.412Z,15.10
2019-03-23T18:53:15.448Z,15.10
2019-03-23T18:56:00.552Z,14.50
2019-03-23T18:58:44.871Z,14.00
2019-03-23T19:01:29.304Z,13.80
2019-03-23T19:04:22.744Z,13.60
2019-03-23T19:07:07.212Z,13.40
2019-03-23T19:09:51.999Z,13.40
2019-03-23T19:12:36.532Z,13.20
2019-03-23T19:15:20.699Z,13.20
2019-03-23T19:18:14.153Z,13.00
2019-03-23T19:20:58.860Z,12.80
2019-03-23T19:23:43.213Z,12.80
2019-03-23T19:26:36.549Z,12.70
2019-03-23T19:29:21.009Z,12.40
2019-03-23T19:32:05.549Z,12.30
2019-03-23T19:34:50.264Z,12.20
2019-03-23T19:37:34.824Z,12.20
2019-03-23T19:40:27.976Z,12.10
2019-03-23T19:43:12.456Z,12.00
2019-03-23T19:45:56.953Z,11.90
2019-03-23T19:48:50.628Z,12.00
2019-03-23T19:51:36.372Z,12.00
2019-03-23T19:54:21.036Z,11.90
2019-03-23T19:57:05.472Z,11.90
2019-03-23T19:59:58.544Z,11.90
2019-03-23T20:02:43.381Z,11.70
2019-03-23T20:05:28.167Z,11.60
2019-03-23T20:08:12.593Z,11.50
2019-03-23T20:10:57.445Z,11.50
2019-03-23T20:13:42.052Z,11.40
2019-03-23T20:16:35.640Z,11.40
2019-03-23T20:19:20.244Z,11.40
2019-03-23T20:22:05.047Z,11.30
2019-03-23T20:24:49.936Z,11.40
2019-03-23T20:27:34.589Z,11.30
2019-03-23T20:30:19.080Z,11.30
2019-03-23T20:33:04.093Z,11.20
2019-03-23T20:35:48.591Z,11.20
2019-03-23T20:38:33.197Z,11.20
2019-03-23T20:41:17.960Z,11.20
2019-03-23T20:44:09.359Z,11.10
2019-03-23T20:46:57.620Z,11.10
2019-03-23T20:49:42.207Z,11.10
2019-03-23T20:52:27.217Z,11.10
2019-03-23T20:55:12.121Z,11.00
2019-03-23T20:57:57.173Z,11.10
2019-03-23T21:00:51.147Z,11.10
2019-03-23T21:03:35.832Z,11.10
2019-03-23T21:06:20.233Z,11.10
2019-03-23T21:09:04.828Z,11.10
2019-03-23T21:11:50.778Z,11.10
2019-03-23T21:14:44.183Z,11.00
2019-03-23T21:17:28.971Z,11.00
2019-03-23T21:20:15.048Z,11.00
2019-03-23T21:23:00.024Z,11.10
2019-03-23T21:25:44.883Z,11.10
2019-03-23T21:28:29.823Z,10.90
2019-03-23T21:31:15.092Z,11.00
2019-03-23T21:34:08.489Z,11.00
2019-03-23T21:36:53.196Z,11.00
2019-03-23T21:39:37.727Z,11.00
2019-03-23T21:42:22.335Z,11.00
2019-03-23T21:45:15.676Z,11.00
2019-03-23T21:48:00.176Z,11.00
2019-03-23T21:50:47.639Z,11.00
2019-03-23T21:53:31.128Z,10.80
2019-03-23T21:56:25.092Z,10.80
2019-03-23T21:59:18.776Z,10.70
2019-03-23T22:02:03.409Z,10.70
2019-03-23T22:04:47.879Z,10.60
2019-03-23T22:07:32.645Z,10.60
2019-03-23T22:10:17.343Z,10.60
2019-03-23T22:13:02.028Z,10.60
2019-03-23T22:15:46.976Z,10.60
2019-03-23T22:18:31.523Z,10.60
2019-03-23T22:21:16.158Z,10.60
2019-03-23T22:24:09.274Z,10.60
2019-03-23T22:26:53.756Z,10.60
2019-03-23T22:29:38.636Z,10.60
2019-03-23T22:32:23.072Z,10.60
2019-03-23T22:35:16.324Z,10.50
2019-03-23T22:38:00.815Z,10.50
2019-03-23T22:40:45.376Z,10.50
2019-03-23T22:43:29.912Z,10.40
2019-03-23T22:46:23.292Z,10.40
2019-03-23T22:49:07.535Z,10.40
2019-03-23T22:51:52.111Z,10.30
2019-03-23T22:54:47.545Z,10.40
2019-03-23T22:57:32.407Z,10.30
2019-03-23T23:00:19.523Z,10.20
2019-03-23T23:03:22.709Z,10.10
2019-03-23T23:06:16.099Z,10.10
2019-03-23T23:09:00.351Z,10.20
2019-03-23T23:11:53.752Z,10.10
2019-03-23T23:14:38.431Z,10.10
2019-03-23T23:17:23.151Z,10.00
2019-03-23T23:20:07.600Z,9.90
2019-03-23T23:22:51.807Z,9.80
2019-03-23T23:25:37.237Z,9.80
2019-03-23T23:28:21.896Z,9.80
2019-03-23T23:31:06.962Z,9.70
2019-03-23T23:33:52.129Z,9.60
2019-03-23T23:36:36.991Z,9.60
2019-03-23T23:39:21.112Z,9.50
2019-03-23T23:42:05.992Z,9.40
2019-03-23T23:44:50.516Z,9.40
2019-03-23T23:47:43.583Z,9.40
2019-03-23T23:50:27.879Z,9.30
2019-03-23T23:53:20.972Z,9.20
2019-03-23T23:56:05.378Z,9.20
2019-03-23T23:58:49.795Z,9.20
